createdAt,value
2023-02-17T00:00:09.101Z,58.62
2023-02-17T00:01:20.970Z,59.04
2023-02-17T00:02:17.651Z,60.88
2023-02-17T00:03:14.218Z,59.47
2023-02-17T00:04:11.656Z,57.88
2023-02-17T00:05:08.288Z,59.15
2023-02-17T00:06:09.026Z,57.66
2023-02-17T00:07:05.663Z,56.67
2023-02-17T00:08:03.286Z,56.13
2023-02-17T00:09:00.438Z,55.93
2023-02-17T00:09:58.437Z,56.46
2023-02-17T00:10:57.698Z,58.75
2023-02-17T00:11:54.430Z,57.68
2023-02-17T00:12:51.021Z,56.05
2023-02-17T00:13:48.010Z,56.37
2023-02-17T00:14:44.632Z,58.88
2023-02-17T00:15:41.324Z,60.48
2023-02-17T00:16:38.005Z,62.29
2023-02-17T00:17:34.633Z,64.12
2023-02-17T00:18:31.181Z,64.75
2023-02-17T00:19:27.787Z,64.94
2023-02-17T00:20:24.407Z,65.78
2023-02-17T00:21:24.002Z,65.39
2023-02-17T00:22:20.611Z,64.77
2023-02-17T00:23:17.827Z,64.89
2023-02-17T00:24:14.373Z,64.95
2023-02-17T00:25:10.974Z,65.01
2023-02-17T00:26:08.597Z,64.63
2023-02-17T00:27:05.749Z,63.95
2023-02-17T00:28:05.592Z,63.92
2023-02-17T00:29:02.475Z,64.02
2023-02-17T00:29:59.146Z,63.30
2023-02-17T00:30:55.810Z,63.59
2023-02-17T00:31:54.101Z,62.14
2023-02-17T00:32:50.756Z,61.14
2023-02-17T00:33:48.082Z,58.61
2023-02-17T00:34:44.699Z,57.38
2023-02-17T00:35:41.715Z,57.57
2023-02-17T00:36:39.088Z,57.62
2023-02-17T00:37:35.921Z,56.63
2023-02-17T00:38:32.991Z,56.75
2023-02-17T00:39:29.846Z,55.52
2023-02-17T00:40:26.542Z,57.39
2023-02-17T00:41:24.732Z,56.80
2023-02-17T00:42:21.345Z,57.14
2023-02-17T00:43:17.909Z,57.69
2023-02-17T00:44:20.446Z,58.64
2023-02-17T00:45:17.413Z,55.97
2023-02-17T00:46:14.721Z,56.62
2023-02-17T00:47:11.340Z,55.55
2023-02-17T00:48:07.987Z,55.76
2023-02-17T00:49:04.645Z,55.54
2023-02-17T00:50:01.290Z,56.02
2023-02-17T00:50:58.113Z,56.21
2023-02-17T00:51:54.828Z,59.82
2023-02-17T00:52:51.440Z,60.33
2023-02-17T00:53:48.097Z,57.71
2023-02-17T00:54:44.682Z,58.46
2023-02-17T00:55:41.754Z,59.91
2023-02-17T00:56:38.652Z,58.06
2023-02-17T00:57:35.299Z,58.09
2023-02-17T00:58:31.939Z,57.59
2023-02-17T00:59:28.574Z,58.28
2023-02-17T01:00:25.406Z,57.00
2023-02-17T01:01:22.047Z,57.98
2023-02-17T01:02:18.853Z,59.18
2023-02-17T01:03:15.450Z,59.13
2023-02-17T01:04:12.097Z,59.25
2023-02-17T01:05:08.958Z,58.69
2023-02-17T01:06:08.619Z,55.87
2023-02-17T01:07:05.180Z,57.15
2023-02-17T01:08:01.781Z,57.53
2023-02-17T01:08:58.340Z,56.01
2023-02-17T01:09:54.930Z,56.64
2023-02-17T01:10:52.287Z,56.98
2023-02-17T01:11:48.928Z,56.36
2023-02-17T01:12:45.708Z,56.26
2023-02-17T01:13:42.263Z,56.26
2023-02-17T01:14:39.003Z,55.96
2023-02-17T01:15:40.832Z,57.10
2023-02-17T01:16:39.760Z,57.33
2023-02-17T01:17:36.348Z,56.25
2023-02-17T01:18:32.975Z,55.43
2023-02-17T01:19:29.541Z,56.79
2023-02-17T01:20:26.220Z,57.66
2023-02-17T01:21:25.609Z,57.45
2023-02-17T01:22:22.310Z,57.19
2023-02-17T01:23:19.478Z,55.97
2023-02-17T01:24:16.098Z,55.23
2023-02-17T01:25:12.757Z,54.79
2023-02-17T01:26:18.262Z,55.89
2023-02-17T01:27:14.928Z,57.08
2023-02-17T01:28:15.910Z,57.16
2023-02-17T01:29:12.481Z,57.00
2023-02-17T01:30:09.449Z,54.66
2023-02-17T01:31:08.435Z,54.36
2023-02-17T01:32:05.357Z,54.99
2023-02-17T01:33:02.061Z,55.97
2023-02-17T01:34:01.638Z,55.33
2023-02-17T01:34:58.240Z,54.63
2023-02-17T01:35:54.916Z,56.87
2023-02-17T01:36:51.561Z,55.42
2023-02-17T01:37:48.234Z,55.16
2023-02-17T01:38:46.549Z,55.45
2023-02-17T01:39:43.116Z,55.43
2023-02-17T01:40:47.299Z,55.28
2023-02-17T01:41:44.391Z,54.70
2023-02-17T01:42:41.474Z,55.05
2023-02-17T01:43:38.100Z,55.41
2023-02-17T01:44:34.748Z,55.39
2023-02-17T01:45:46.055Z,54.68
2023-02-17T01:46:45.230Z,54.71
2023-02-17T01:47:41.942Z,54.32
2023-02-17T01:48:49.131Z,53.14
2023-02-17T01:49:45.729Z,52.81
2023-02-17T01:50:48.870Z,53.21
2023-02-17T01:51:50.235Z,53.23
2023-02-17T01:52:46.976Z,53.78
2023-02-17T01:53:59.034Z,53.47
2023-02-17T01:54:59.865Z,53.88
2023-02-17T01:55:57.100Z,55.01
2023-02-17T01:56:57.297Z,54.51
2023-02-17T01:57:58.166Z,54.85
2023-02-17T01:59:00.579Z,54.58
2023-02-17T01:59:57.470Z,54.14
2023-02-17T02:00:56.847Z,53.81
2023-02-17T02:01:58.652Z,54.95
2023-02-17T02:02:55.993Z,54.72
2023-02-17T02:03:53.570Z,54.45
2023-02-17T02:04:53.321Z,53.95
2023-02-17T02:05:50.528Z,53.71
2023-02-17T02:06:47.861Z,54.70
2023-02-17T02:07:46.659Z,54.84
2023-02-17T02:08:53.311Z,54.41
2023-02-17T02:09:53.862Z,55.52
2023-02-17T02:10:50.419Z,54.99
2023-02-17T02:11:51.667Z,54.85
2023-02-17T02:12:48.345Z,54.21
2023-02-17T02:13:45.046Z,53.59
2023-02-17T02:14:41.652Z,53.46
2023-02-17T02:15:47.910Z,54.15
2023-02-17T02:17:12.466Z,54.65
2023-02-17T02:18:24.692Z,55.20
2023-02-17T02:19:30.445Z,55.32
2023-02-17T02:21:14.703Z,56.92
2023-02-17T02:22:41.839Z,55.09
2023-02-17T02:23:58.874Z,54.71
2023-02-17T02:25:10.490Z,54.79
2023-02-17T02:26:43.990Z,55.85
2023-02-17T02:28:00.792Z,56.76
2023-02-17T02:29:16.322Z,56.54
2023-02-17T02:30:15.715Z,57.49
2023-02-17T02:31:12.497Z,56.84
2023-02-17T02:32:50.434Z,56.32
2023-02-17T02:33:56.245Z,56.36
2023-02-17T02:35:18.993Z,56.26
2023-02-17T02:36:27.316Z,57.13
2023-02-17T02:37:43.195Z,56.38
2023-02-17T02:38:42.383Z,57.50
2023-02-17T02:39:47.751Z,56.11
2023-02-17T02:40:50.060Z,56.06
2023-02-17T02:42:00.341Z,57.15
2023-02-17T02:42:57.517Z,57.30
2023-02-17T02:43:54.170Z,58.59
2023-02-17T02:44:51.380Z,58.91
2023-02-17T02:45:48.545Z,58.83
2023-02-17T02:46:45.218Z,59.26
2023-02-17T02:47:46.337Z,59.13
2023-02-17T02:48:43.937Z,58.17
2023-02-17T02:49:40.521Z,58.11
2023-02-17T02:51:04.353Z,58.06
2023-02-17T02:52:31.816Z,58.08
2023-02-17T02:53:43.457Z,56.82
2023-02-17T02:54:48.960Z,56.31
2023-02-17T02:56:00.028Z,55.88
2023-02-17T02:57:02.336Z,56.34
2023-02-17T02:58:37.190Z,55.05
2023-02-17T03:00:02.459Z,55.51
2023-02-17T03:01:43.544Z,56.09
2023-02-17T03:02:59.583Z,54.89
2023-02-17T03:04:01.868Z,55.19
2023-02-17T03:05:13.672Z,54.74
2023-02-17T03:06:29.949Z,56.29
2023-02-17T03:07:35.047Z,56.14
2023-02-17T03:08:47.309Z,57.29
2023-02-17T03:09:43.929Z,56.61
2023-02-17T03:10:49.229Z,56.18
2023-02-17T03:11:47.389Z,57.52
2023-02-17T03:12:44.206Z,57.73
2023-02-17T03:13:41.133Z,56.64
2023-02-17T03:14:38.972Z,55.44
2023-02-17T03:15:36.016Z,56.46
2023-02-17T03:16:34.490Z,56.84
2023-02-17T03:17:33.325Z,57.40
2023-02-17T03:18:32.821Z,57.26
2023-02-17T03:19:29.508Z,56.53
2023-02-17T03:20:30.054Z,56.78
2023-02-17T03:21:35.063Z,56.66
2023-02-17T03:22:41.721Z,56.37
2023-02-17T03:23:38.422Z,56.67
2023-02-17T03:24:35.388Z,56.79
2023-02-17T03:25:32.117Z,56.63
2023-02-17T03:26:28.740Z,56.02
2023-02-17T03:27:25.436Z,56.53
2023-02-17T03:28:22.068Z,56.94
2023-02-17T03:29:18.905Z,57.38
2023-02-17T03:30:15.783Z,57.63
2023-02-17T03:31:12.485Z,56.97
2023-02-17T03:32:09.670Z,56.78
2023-02-17T03:33:06.325Z,57.07
2023-02-17T03:34:03.342Z,57.77
2023-02-17T03:34:59.952Z,57.07
2023-02-17T03:35:56.607Z,57.95
2023-02-17T03:36:53.321Z,58.10
2023-02-17T03:37:49.887Z,57.27
2023-02-17T03:38:47.574Z,57.31
2023-02-17T03:39:44.212Z,56.42
2023-02-17T03:40:40.827Z,56.52
2023-02-17T03:41:37.468Z,56.45
2023-02-17T03:42:34.346Z,56.96
2023-02-17T03:43:30.921Z,56.75
2023-02-17T03:44:27.612Z,57.39
2023-02-17T03:45:24.269Z,57.71
2023-02-17T03:46:21.127Z,57.49
2023-02-17T03:47:17.775Z,57.01
2023-02-17T03:48:14.447Z,55.98
2023-02-17T03:49:12.987Z,55.76
2023-02-17T03:50:09.938Z,56.16
2023-02-17T03:51:23.626Z,56.47
2023-02-17T03:52:20.641Z,55.92
2023-02-17T03:53:17.305Z,55.90
2023-02-17T03:54:13.972Z,56.73
2023-02-17T03:55:10.661Z,56.38
2023-02-17T03:56:07.437Z,56.28
2023-02-17T03:57:04.230Z,57.05
2023-02-17T03:58:00.826Z,57.05
2023-02-17T03:58:57.522Z,56.50
2023-02-17T03:59:54.120Z,56.13
2023-02-17T04:00:50.734Z,56.37
2023-02-17T04:01:47.305Z,57.41
2023-02-17T04:02:44.267Z,57.40
2023-02-17T04:03:41.829Z,57.45
2023-02-17T04:04:39.239Z,57.95
2023-02-17T04:05:35.841Z,56.63
2023-02-17T04:06:32.468Z,57.04
2023-02-17T04:07:29.190Z,56.02
2023-02-17T04:08:25.958Z,56.58
2023-02-17T04:09:22.577Z,56.63
2023-02-17T04:10:19.448Z,57.03
2023-02-17T04:11:16.110Z,57.17
2023-02-17T04:12:12.705Z,56.79
2023-02-17T04:13:09.297Z,55.87
2023-02-17T04:14:05.886Z,55.73
2023-02-17T04:15:02.480Z,55.58
2023-02-17T04:16:01.306Z,55.52
2023-02-17T04:16:58.047Z,55.96
2023-02-17T04:17:54.649Z,55.46
2023-02-17T04:18:51.257Z,55.63
2023-02-17T04:19:47.856Z,55.55
2023-02-17T04:20:44.643Z,56.30
2023-02-17T04:21:41.237Z,56.14
2023-02-17T04:22:37.811Z,55.56
2023-02-17T04:23:36.424Z,55.16
2023-02-17T04:24:32.990Z,55.27
2023-02-17T04:25:29.604Z,56.99
2023-02-17T04:26:26.289Z,56.96
2023-02-17T04:27:22.858Z,56.82
2023-02-17T04:28:19.833Z,55.37
2023-02-17T04:29:16.498Z,56.83
2023-02-17T04:30:13.783Z,57.30
2023-02-17T04:31:10.596Z,56.87
2023-02-17T04:32:07.258Z,55.76
2023-02-17T04:33:04.251Z,55.08
2023-02-17T04:34:00.848Z,55.20
2023-02-17T04:34:57.420Z,55.12
2023-02-17T04:35:59.568Z,56.08
2023-02-17T04:36:56.260Z,55.32
2023-02-17T04:37:53.468Z,56.25
2023-02-17T04:38:50.092Z,56.18
2023-02-17T04:39:46.737Z,57.01
2023-02-17T04:40:43.573Z,56.07
2023-02-17T04:41:40.119Z,55.55
2023-02-17T04:42:37.417Z,54.39
2023-02-17T04:43:34.018Z,54.93
2023-02-17T04:44:30.728Z,56.24
2023-02-17T04:45:27.406Z,55.56
2023-02-17T04:46:24.047Z,55.14
2023-02-17T04:47:20.755Z,55.17
2023-02-17T04:48:17.703Z,55.50
2023-02-17T04:49:14.290Z,55.63
2023-02-17T04:50:11.310Z,55.09
2023-02-17T04:51:07.928Z,55.16
2023-02-17T04:52:04.698Z,55.60
2023-02-17T04:53:04.265Z,55.50
2023-02-17T04:54:01.265Z,55.29
2023-02-17T04:54:57.985Z,54.83
2023-02-17T04:55:54.621Z,55.37
2023-02-17T04:56:51.192Z,55.10
2023-02-17T04:57:47.826Z,54.91
2023-02-17T04:58:44.554Z,55.38
2023-02-17T04:59:41.134Z,56.49
2023-02-17T05:00:37.869Z,55.87
2023-02-17T05:01:34.467Z,55.65
2023-02-17T05:02:31.716Z,55.64
2023-02-17T05:03:28.342Z,55.37
2023-02-17T05:04:25.064Z,55.32
2023-02-17T05:05:21.806Z,56.15
2023-02-17T05:06:18.514Z,56.08
2023-02-17T05:07:15.127Z,57.23
2023-02-17T05:08:11.760Z,57.51
2023-02-17T05:09:08.366Z,56.76
2023-02-17T05:10:05.231Z,56.95
2023-02-17T05:11:01.905Z,55.86
2023-02-17T05:11:59.181Z,56.50
2023-02-17T05:12:55.968Z,56.88
2023-02-17T05:13:52.602Z,56.37
2023-02-17T05:14:49.288Z,55.92
2023-02-17T05:15:46.798Z,55.39
2023-02-17T05:16:43.655Z,55.17
2023-02-17T05:17:40.775Z,55.41
2023-02-17T05:18:37.511Z,55.26
2023-02-17T05:19:34.352Z,55.45
2023-02-17T05:20:31.538Z,55.32
2023-02-17T05:21:28.193Z,56.04
2023-02-17T05:22:25.548Z,55.41
2023-02-17T05:23:22.274Z,55.78
2023-02-17T05:24:18.884Z,54.78
2023-02-17T05:25:15.607Z,55.37
2023-02-17T05:26:12.626Z,55.26
2023-02-17T05:27:09.449Z,56.34
2023-02-17T05:28:06.087Z,55.32
2023-02-17T05:29:02.730Z,55.03
2023-02-17T05:29:59.361Z,55.38
2023-02-17T05:30:56.046Z,54.77
2023-02-17T05:31:52.698Z,54.74
2023-02-17T05:32:49.366Z,55.37
2023-02-17T05:33:46.008Z,54.61
2023-02-17T05:34:42.604Z,54.50
2023-02-17T05:35:39.372Z,54.40
2023-02-17T05:36:36.377Z,54.62
2023-02-17T05:37:32.974Z,55.25
2023-02-17T05:38:29.741Z,55.62
2023-02-17T05:39:26.412Z,55.30
2023-02-17T05:40:22.988Z,54.99
2023-02-17T05:41:20.169Z,55.44
2023-02-17T05:42:16.886Z,55.01
2023-02-17T05:43:13.584Z,54.98
2023-02-17T05:44:10.137Z,55.09
2023-02-17T05:45:06.914Z,54.86
2023-02-17T05:46:04.976Z,55.27
2023-02-17T05:47:01.877Z,55.72
2023-02-17T05:47:58.531Z,54.95
2023-02-17T05:48:55.176Z,55.21
2023-02-17T05:49:51.732Z,55.14
2023-02-17T05:50:48.426Z,56.08
2023-02-17T05:51:45.008Z,55.61
2023-02-17T05:52:41.666Z,55.55
2023-02-17T05:53:38.202Z,55.66
2023-02-17T05:54:34.788Z,55.63
2023-02-17T05:55:31.576Z,56.50
2023-02-17T05:56:28.270Z,56.63
2023-02-17T05:57:24.800Z,55.95
2023-02-17T05:58:21.640Z,55.61
2023-02-17T05:59:18.489Z,54.78
2023-02-17T06:00:15.705Z,55.57
2023-02-17T06:01:13.229Z,56.15
2023-02-17T06:02:09.993Z,56.77
2023-02-17T06:03:06.597Z,55.88
2023-02-17T06:04:03.690Z,56.12
2023-02-17T06:05:00.395Z,56.87
2023-02-17T06:05:57.012Z,56.62
2023-02-17T06:06:53.659Z,56.74
2023-02-17T06:07:50.290Z,56.63
2023-02-17T06:08:47.415Z,56.28
2023-02-17T06:09:45.337Z,56.48
2023-02-17T06:10:43.679Z,56.15
2023-02-17T06:11:40.368Z,56.30
2023-02-17T06:12:36.959Z,56.32
2023-02-17T06:13:33.645Z,56.72
2023-02-17T06:14:30.546Z,56.68
2023-02-17T06:15:27.149Z,56.90
2023-02-17T06:16:23.937Z,55.67
2023-02-17T06:17:20.639Z,55.39
2023-02-17T06:18:17.640Z,55.61
2023-02-17T06:19:14.255Z,55.80
2023-02-17T06:20:12.856Z,55.79
2023-02-17T06:21:09.485Z,55.11
2023-02-17T06:22:06.155Z,54.88
2023-02-17T06:23:02.733Z,54.95
2023-02-17T06:23:59.341Z,55.50
2023-02-17T06:24:55.992Z,55.65
2023-02-17T06:25:53.086Z,56.19
2023-02-17T06:26:49.703Z,55.12
2023-02-17T06:27:46.230Z,54.83
2023-02-17T06:28:42.821Z,54.86
2023-02-17T06:29:39.373Z,54.58
2023-02-17T06:30:35.938Z,55.11
2023-02-17T06:31:32.691Z,55.21
2023-02-17T06:32:29.377Z,55.15
2023-02-17T06:33:26.292Z,55.04
2023-02-17T06:34:22.889Z,55.20
2023-02-17T06:35:19.676Z,55.65
2023-02-17T06:36:16.582Z,55.08
2023-02-17T06:37:13.264Z,55.13
2023-02-17T06:38:09.869Z,55.02
2023-02-17T06:39:06.466Z,55.00
2023-02-17T06:40:03.739Z,54.30
2023-02-17T06:41:00.338Z,54.43
2023-02-17T06:41:56.947Z,54.33
2023-02-17T06:42:53.573Z,54.58
2023-02-17T06:43:50.152Z,55.21
2023-02-17T06:44:46.750Z,54.70
2023-02-17T06:45:43.440Z,53.90
2023-02-17T06:46:40.151Z,53.84
2023-02-17T06:47:36.770Z,53.98
2023-02-17T06:48:33.352Z,53.89
2023-02-17T06:49:29.912Z,53.55
2023-02-17T06:50:26.574Z,53.18
2023-02-17T06:51:23.145Z,53.04
2023-02-17T06:52:19.704Z,53.01
2023-02-17T06:53:16.378Z,53.18
2023-02-17T06:54:12.941Z,53.39
2023-02-17T06:55:09.829Z,53.56
2023-02-17T06:56:06.857Z,52.99
2023-02-17T06:57:03.847Z,52.99
2023-02-17T06:58:00.493Z,52.67
2023-02-17T06:58:57.072Z,52.46
2023-02-17T06:59:53.823Z,52.16
2023-02-17T07:00:51.632Z,51.97
2023-02-17T07:01:49.899Z,52.27
2023-02-17T07:02:46.820Z,51.77
2023-02-17T07:03:43.618Z,51.47
2023-02-17T07:04:41.515Z,51.50
2023-02-17T07:05:40.029Z,51.57
2023-02-17T07:06:36.643Z,51.90
2023-02-17T07:07:33.307Z,51.41
2023-02-17T07:08:29.964Z,51.87
2023-02-17T07:09:26.541Z,51.40
2023-02-17T07:10:23.154Z,50.70
2023-02-17T07:11:20.645Z,50.77
2023-02-17T07:12:17.313Z,50.33
2023-02-17T07:13:13.859Z,50.12
2023-02-17T07:14:10.539Z,50.40
2023-02-17T07:15:09.472Z,50.00
2023-02-17T07:16:10.242Z,50.08
2023-02-17T07:17:07.139Z,49.83
2023-02-17T07:18:03.902Z,50.40
2023-02-17T07:19:02.891Z,49.67
2023-02-17T07:19:59.529Z,49.92
2023-02-17T07:20:56.492Z,50.67
2023-02-17T07:21:53.123Z,49.06
2023-02-17T07:22:49.840Z,48.66
2023-02-17T07:23:46.610Z,49.00
2023-02-17T07:24:43.285Z,48.11
2023-02-17T07:25:39.885Z,48.21
2023-02-17T07:26:37.319Z,48.55
2023-02-17T07:27:36.685Z,48.63
2023-02-17T07:28:33.233Z,48.79
2023-02-17T07:29:29.805Z,48.37
2023-02-17T07:30:26.427Z,49.66
2023-02-17T07:31:23.197Z,48.43
2023-02-17T07:32:19.833Z,48.52
2023-02-17T07:33:16.644Z,48.61
2023-02-17T07:34:13.286Z,48.26
2023-02-17T07:35:10.675Z,48.29
2023-02-17T07:36:15.082Z,47.68
2023-02-17T07:37:11.665Z,48.31
2023-02-17T07:38:08.560Z,48.01
2023-02-17T07:39:05.369Z,47.92
2023-02-17T07:40:02.014Z,48.32
2023-02-17T07:41:04.795Z,48.54
2023-02-17T07:42:01.487Z,48.03
2023-02-17T07:42:58.499Z,48.23
2023-02-17T07:43:57.218Z,47.84
2023-02-17T07:44:53.873Z,48.35
2023-02-17T07:45:54.765Z,47.71
2023-02-17T07:46:51.411Z,48.34
2023-02-17T07:47:48.025Z,47.94
2023-02-17T07:48:44.892Z,47.34
2023-02-17T07:49:41.601Z,47.28
2023-02-17T07:50:38.270Z,47.23
2023-02-17T07:51:35.107Z,47.72
2023-02-17T07:52:31.748Z,47.57
2023-02-17T07:53:28.382Z,47.73
2023-02-17T07:54:25.030Z,48.28
2023-02-17T07:55:21.561Z,48.40
2023-02-17T07:56:21.555Z,47.97
2023-02-17T07:57:18.197Z,47.93
2023-02-17T07:58:14.904Z,47.38
2023-02-17T07:59:13.351Z,47.79
2023-02-17T08:00:10.999Z,48.32
2023-02-17T08:01:12.173Z,48.52
2023-02-17T08:02:11.841Z,47.64
2023-02-17T08:03:10.792Z,48.13
2023-02-17T08:04:07.451Z,47.20
2023-02-17T08:05:04.171Z,48.12
2023-02-17T08:06:00.845Z,47.20
2023-02-17T08:06:57.503Z,47.30
2023-02-17T08:08:14.107Z,45.98
2023-02-17T08:09:30.487Z,46.74
2023-02-17T08:10:45.797Z,46.46
2023-02-17T08:12:02.036Z,45.42
2023-02-17T08:13:18.167Z,46.26
2023-02-17T08:14:15.068Z,45.81
2023-02-17T08:15:12.091Z,46.06
2023-02-17T08:16:08.953Z,46.33
2023-02-17T08:17:06.614Z,46.32
2023-02-17T08:18:05.019Z,46.01
2023-02-17T08:19:06.096Z,45.88
2023-02-17T08:20:08.803Z,46.16
2023-02-17T08:21:06.404Z,46.36
2023-02-17T08:22:03.762Z,46.74
2023-02-17T08:23:01.161Z,46.85
2023-02-17T08:23:57.788Z,46.58
2023-02-17T08:24:54.424Z,47.42
2023-02-17T08:25:51.090Z,46.50
2023-02-17T08:26:51.944Z,46.08
2023-02-17T08:27:48.623Z,46.42
2023-02-17T08:28:45.613Z,46.74
2023-02-17T08:29:42.480Z,46.35
2023-02-17T08:30:39.363Z,46.87
2023-02-17T08:31:36.952Z,46.93
2023-02-17T08:32:33.710Z,46.22
2023-02-17T08:33:30.421Z,46.22
2023-02-17T08:34:28.272Z,47.05
2023-02-17T08:35:25.876Z,46.59
2023-02-17T08:36:26.686Z,47.28
2023-02-17T08:37:23.339Z,46.05
2023-02-17T08:38:20.132Z,46.62
2023-02-17T08:39:18.539Z,46.30
2023-02-17T08:40:15.598Z,46.31
2023-02-17T08:41:14.634Z,47.15
2023-02-17T08:42:12.189Z,47.10
2023-02-17T08:43:09.815Z,46.41
2023-02-17T08:44:13.683Z,47.49
2023-02-17T08:45:12.746Z,47.11
2023-02-17T08:46:11.101Z,47.34
2023-02-17T08:47:10.536Z,46.93
2023-02-17T08:48:07.207Z,47.01
2023-02-17T08:49:04.984Z,46.20
2023-02-17T08:50:02.573Z,46.05
2023-02-17T08:50:59.207Z,46.13
2023-02-17T08:51:55.823Z,46.49
2023-02-17T08:52:52.429Z,46.08
2023-02-17T08:53:50.840Z,46.27
2023-02-17T08:54:47.464Z,45.36
2023-02-17T08:55:49.237Z,46.54
2023-02-17T08:56:46.691Z,45.98
2023-02-17T08:57:43.753Z,45.49
2023-02-17T08:58:40.531Z,44.93
2023-02-17T08:59:37.178Z,44.57
2023-02-17T09:00:33.880Z,45.31
2023-02-17T09:01:31.474Z,44.29
2023-02-17T09:02:28.061Z,45.15
2023-02-17T09:03:24.844Z,44.03
2023-02-17T09:04:21.593Z,45.04
2023-02-17T09:05:18.624Z,43.50
2023-02-17T09:06:16.225Z,44.06
2023-02-17T09:07:15.088Z,44.54
2023-02-17T09:08:11.893Z,44.92
2023-02-17T09:09:11.357Z,44.97
2023-02-17T09:10:09.597Z,44.93
2023-02-17T09:11:09.167Z,43.80
2023-02-17T09:12:06.493Z,44.05
2023-02-17T09:13:03.742Z,43.81
2023-02-17T09:14:00.557Z,43.90
2023-02-17T09:14:57.155Z,43.64
2023-02-17T09:15:54.713Z,42.92
2023-02-17T09:16:52.709Z,43.54
2023-02-17T09:17:49.488Z,43.21
2023-02-17T09:18:46.474Z,42.77
2023-02-17T09:19:43.229Z,43.35
2023-02-17T09:20:39.945Z,42.46
2023-02-17T09:21:36.584Z,42.65
2023-02-17T09:22:33.233Z,42.26
2023-02-17T09:23:29.827Z,42.15
2023-02-17T09:24:26.523Z,41.64
2023-02-17T09:25:23.385Z,40.70
2023-02-17T09:26:20.808Z,40.90
2023-02-17T09:27:17.444Z,40.97
2023-02-17T09:28:14.179Z,41.50
2023-02-17T09:29:10.833Z,41.13
2023-02-17T09:30:08.108Z,41.69
2023-02-17T09:31:19.995Z,40.41
2023-02-17T09:32:16.834Z,40.70
2023-02-17T09:33:13.446Z,40.85
2023-02-17T09:34:10.171Z,39.73
2023-02-17T09:35:07.480Z,39.80
2023-02-17T09:36:06.206Z,40.70
2023-02-17T09:37:03.355Z,39.09
2023-02-17T09:38:00.761Z,38.46
2023-02-17T09:38:57.977Z,38.87
2023-02-17T09:39:54.672Z,39.00
2023-02-17T09:40:51.408Z,38.99
2023-02-17T09:41:52.314Z,37.61
2023-02-17T09:42:49.574Z,37.85
2023-02-17T09:43:46.540Z,38.13
2023-02-17T09:44:47.150Z,38.53
2023-02-17T09:45:49.957Z,37.91
2023-02-17T09:47:12.396Z,38.08
2023-02-17T09:48:15.648Z,38.18
2023-02-17T09:49:26.741Z,37.59
2023-02-17T09:50:33.947Z,37.30
2023-02-17T09:51:39.411Z,37.93
2023-02-17T09:52:49.197Z,38.35
2023-02-17T09:53:53.071Z,38.35
2023-02-17T09:55:01.070Z,36.97
2023-02-17T09:56:01.734Z,37.23
2023-02-17T09:57:02.107Z,37.39
2023-02-17T09:58:04.565Z,37.10
2023-02-17T09:59:06.302Z,37.48
2023-02-17T10:00:10.989Z,37.40
2023-02-17T10:01:16.273Z,37.13
2023-02-17T10:02:54.836Z,36.19
2023-02-17T10:04:06.789Z,36.12
2023-02-17T10:05:07.592Z,36.51
2023-02-17T10:06:23.022Z,36.39
2023-02-17T10:07:42.710Z,36.49
2023-02-17T10:08:49.225Z,36.01
2023-02-17T10:09:54.030Z,37.05
2023-02-17T10:11:24.066Z,35.68
2023-02-17T10:12:26.887Z,35.36
2023-02-17T10:13:27.587Z,35.55
2023-02-17T10:14:45.679Z,35.11
2023-02-17T10:15:48.284Z,34.48
2023-02-17T10:16:54.188Z,34.84
2023-02-17T10:17:53.784Z,34.60
2023-02-17T10:19:05.558Z,33.98
2023-02-17T10:20:07.552Z,34.22
2023-02-17T10:21:25.158Z,34.67
2023-02-17T10:22:24.463Z,34.18
2023-02-17T10:23:30.537Z,32.52
2023-02-17T10:24:27.151Z,31.59
2023-02-17T10:25:41.483Z,31.94
2023-02-17T10:26:47.965Z,32.39
2023-02-17T10:28:00.146Z,32.69
2023-02-17T10:29:07.442Z,32.59
2023-02-17T10:30:36.525Z,32.16
2023-02-17T10:31:54.308Z,31.09
2023-02-17T10:32:53.871Z,32.25
2023-02-17T10:34:12.989Z,31.23
2023-02-17T10:35:24.552Z,32.98
2023-02-17T10:36:34.043Z,31.48
2023-02-17T10:37:42.447Z,30.69
2023-02-17T10:38:44.766Z,30.72
2023-02-17T10:39:47.776Z,30.76
2023-02-17T10:40:47.812Z,30.19
2023-02-17T10:41:48.234Z,31.45
2023-02-17T10:42:46.056Z,32.18
2023-02-17T10:43:44.766Z,30.34
2023-02-17T10:44:41.508Z,30.44
2023-02-17T10:45:45.176Z,31.38
2023-02-17T10:46:43.429Z,31.14
2023-02-17T10:47:40.884Z,31.09
2023-02-17T10:48:58.778Z,31.35
2023-02-17T10:49:57.270Z,31.87
2023-02-17T10:50:57.768Z,32.32
2023-02-17T10:51:54.543Z,32.53
2023-02-17T10:52:51.460Z,31.48
2023-02-17T10:53:52.993Z,31.82
2023-02-17T10:54:52.530Z,31.94
2023-02-17T10:56:23.805Z,31.44
2023-02-17T10:57:25.082Z,31.76
2023-02-17T10:58:55.798Z,31.66
2023-02-17T10:59:52.362Z,32.01
2023-02-17T11:00:54.240Z,32.07
2023-02-17T11:01:51.249Z,32.67
2023-02-17T11:02:52.878Z,31.63
2023-02-17T11:04:13.482Z,32.12
2023-02-17T11:05:25.397Z,31.92
2023-02-17T11:06:23.281Z,31.92
2023-02-17T11:07:26.675Z,32.06
2023-02-17T11:08:32.257Z,31.94
2023-02-17T11:09:32.067Z,31.96
2023-02-17T11:10:34.871Z,31.61
2023-02-17T11:11:35.142Z,30.42
2023-02-17T11:12:41.300Z,31.36
2023-02-17T11:13:43.896Z,31.67
2023-02-17T11:14:50.279Z,32.10
2023-02-17T11:15:47.803Z,32.77
2023-02-17T11:16:47.409Z,32.43
2023-02-17T11:17:45.517Z,31.69
2023-02-17T11:18:47.601Z,31.99
2023-02-17T11:19:55.760Z,31.62
2023-02-17T11:21:01.259Z,31.42
2023-02-17T11:21:59.871Z,32.50
2023-02-17T11:23:21.654Z,31.41
2023-02-17T11:24:18.442Z,30.83
2023-02-17T11:25:30.070Z,30.62
2023-02-17T11:26:30.616Z,30.75
2023-02-17T11:27:27.419Z,30.25
2023-02-17T11:28:26.038Z,31.08
2023-02-17T11:29:23.422Z,31.47
2023-02-17T11:30:20.621Z,31.18
2023-02-17T11:31:27.328Z,31.56
2023-02-17T11:32:34.421Z,31.45
2023-02-17T11:33:40.658Z,32.05
2023-02-17T11:34:40.246Z,31.00
2023-02-17T11:35:36.828Z,31.36
2023-02-17T11:36:33.464Z,31.10
2023-02-17T11:37:32.423Z,31.57
2023-02-17T11:38:46.350Z,30.95
2023-02-17T11:39:53.534Z,29.80
2023-02-17T11:40:57.785Z,30.75
2023-02-17T11:41:54.585Z,31.21
2023-02-17T11:43:03.477Z,32.80
2023-02-17T11:44:00.216Z,31.86
2023-02-17T11:44:59.306Z,31.77
2023-02-17T11:46:01.152Z,30.10
2023-02-17T11:47:09.896Z,29.25
2023-02-17T11:48:24.953Z,29.39
2023-02-17T11:49:38.817Z,31.31
2023-02-17T11:50:47.585Z,29.01
2023-02-17T11:52:12.771Z,29.40
2023-02-17T11:53:09.327Z,29.07
2023-02-17T11:54:52.996Z,30.13
2023-02-17T11:55:49.567Z,31.29
2023-02-17T11:57:06.443Z,29.57
2023-02-17T11:58:03.010Z,29.57
2023-02-17T11:59:24.602Z,30.01
2023-02-17T12:00:22.997Z,31.03
2023-02-17T12:01:19.550Z,30.69
2023-02-17T12:02:24.513Z,30.03
2023-02-17T12:03:48.383Z,28.51
2023-02-17T12:05:20.566Z,28.83
2023-02-17T12:06:43.265Z,27.80
2023-02-17T12:07:49.734Z,28.26
2023-02-17T12:09:18.535Z,28.16
2023-02-17T12:10:45.518Z,27.53
2023-02-17T12:11:42.093Z,28.68
2023-02-17T12:12:49.411Z,28.49
2023-02-17T12:14:20.049Z,27.76
2023-02-17T12:15:42.408Z,26.18
2023-02-17T12:16:53.055Z,26.53
2023-02-17T12:18:06.159Z,26.21
2023-02-17T12:19:11.749Z,26.19
2023-02-17T12:20:31.825Z,27.24
2023-02-17T12:21:37.117Z,27.72
2023-02-17T12:22:44.768Z,26.97
2023-02-17T12:24:07.419Z,27.74
2023-02-17T12:25:20.076Z,27.75
2023-02-17T12:26:32.018Z,26.97
2023-02-17T12:27:34.733Z,28.13
2023-02-17T12:28:40.016Z,28.53
2023-02-17T12:30:13.977Z,28.43
2023-02-17T12:31:35.094Z,28.94
2023-02-17T12:32:56.705Z,28.40
2023-02-17T12:34:03.853Z,28.78
2023-02-17T12:35:13.865Z,29.08
2023-02-17T12:36:14.701Z,30.28
2023-02-17T12:37:19.264Z,29.19
2023-02-17T12:38:18.455Z,29.61
2023-02-17T12:39:26.418Z,29.87
2023-02-17T12:40:41.429Z,29.49
2023-02-17T12:41:49.214Z,29.52
2023-02-17T12:42:55.591Z,29.52
2023-02-17T12:43:57.926Z,29.30
2023-02-17T12:45:00.744Z,28.82
2023-02-17T12:46:00.355Z,27.84
2023-02-17T12:47:03.364Z,28.09
2023-02-17T12:48:06.883Z,28.53
2023-02-17T12:49:11.422Z,28.45
2023-02-17T12:50:37.489Z,27.92
2023-02-17T12:51:40.813Z,27.93
2023-02-17T12:52:40.992Z,27.23
2023-02-17T12:54:03.877Z,27.56
2023-02-17T12:55:12.444Z,26.94
2023-02-17T12:56:20.999Z,27.51
2023-02-17T12:57:23.339Z,27.36
2023-02-17T12:58:26.491Z,27.92
2023-02-17T12:59:32.875Z,27.87
2023-02-17T13:00:39.349Z,27.03
2023-02-17T13:01:54.525Z,27.45